sensor_id;sensor_type;location;lat;lon;timestamp;P1;durP1;ratioP1;P2;durP2;ratioP2
17177;SDS011;8704;52.006;4.374;2023-03-23T00:02:14;12.02;;;8.73;;
17177;SDS011;8704;52.006;4.374;2023-03-23T00:04:41;10.43;;;8.15;;
17177;SDS011;8704;52.006;4.374;2023-03-23T00:07:08;10.00;;;8.40;;
17177;SDS011;8704;52.006;4.374;2023-03-23T00:09:39;12.65;;;8.23;;
17177;SDS011;8704;52.006;4.374;2023-03-23T00:12:06;12.40;;;7.82;;
17177;SDS011;8704;52.006;4.374;2023-03-23T00:14:33;10.98;;;8.43;;
17177;SDS011;8704;52.006;4.374;2023-03-23T00:17:08;9.32;;;8.07;;
17177;SDS011;8704;52.006;4.374;2023-03-23T00:19:36;8.75;;;7.78;;
17177;SDS011;8704;52.006;4.374;2023-03-23T00:22:11;8.85;;;6.40;;
17177;SDS011;8704;52.006;4.374;2023-03-23T00:24:40;9.15;;;8.23;;
17177;SDS011;8704;52.006;4.374;2023-03-23T00:27:07;9.82;;;8.93;;
17177;SDS011;8704;52.006;4.374;2023-03-23T00:29:37;10.77;;;9.60;;
17177;SDS011;8704;52.006;4.374;2023-03-23T00:32:06;8.38;;;7.50;;
17177;SDS011;8704;52.006;4.374;2023-03-23T00:34:37;10.80;;;9.00;;
17177;SDS011;8704;52.006;4.374;2023-03-23T00:37:05;8.90;;;7.70;;
17177;SDS011;8704;52.006;4.374;2023-03-23T00:39:33;7.80;;;7.00;;
17177;SDS011;8704;52.006;4.374;2023-03-23T00:42:03;9.48;;;7.90;;
17177;SDS011;8704;52.006;4.374;2023-03-23T00:44:31;8.55;;;7.15;;
17177;SDS011;8704;52.006;4.374;2023-03-23T00:47:00;8.70;;;7.28;;
17177;SDS011;8704;52.006;4.374;2023-03-23T00:49:28;9.27;;;7.40;;
17177;SDS011;8704;52.006;4.374;2023-03-23T00:51:56;9.48;;;7.30;;
17177;SDS011;8704;52.006;4.374;2023-03-23T00:54:24;7.97;;;7.18;;
17177;SDS011;8704;52.006;4.374;2023-03-23T00:56:51;11.23;;;6.97;;
17177;SDS011;8704;52.006;4.374;2023-03-23T00:59:20;8.85;;;7.95;;
17177;SDS011;8704;52.006;4.374;2023-03-23T01:01:48;8.07;;;6.30;;
17177;SDS011;8704;52.006;4.374;2023-03-23T01:04:15;9.13;;;6.60;;
17177;SDS011;8704;52.006;4.374;2023-03-23T01:06:43;8.07;;;7.28;;
17177;SDS011;8704;52.006;4.374;2023-03-23T01:09:15;9.27;;;6.97;;
17177;SDS011;8704;52.006;4.374;2023-03-23T01:11:44;11.18;;;6.60;;
17177;SDS011;8704;52.006;4.374;2023-03-23T01:14:12;7.97;;;7.18;;
17177;SDS011;8704;52.006;4.374;2023-03-23T01:16:42;8.82;;;7.78;;
17177;SDS011;8704;52.006;4.374;2023-03-23T01:19:08;7.72;;;6.88;;
17177;SDS011;8704;52.006;4.374;2023-03-23T01:21:36;11.95;;;7.18;;
17177;SDS011;8704;52.006;4.374;2023-03-23T01:24:03;7.30;;;6.60;;
17177;SDS011;8704;52.006;4.374;2023-03-23T01:26:31;9.82;;;7.07;;
17177;SDS011;8704;52.006;4.374;2023-03-23T01:28:58;8.00;;;6.68;;
17177;SDS011;8704;52.006;4.374;2023-03-23T01:31:25;7.50;;;6.78;;
17177;SDS011;8704;52.006;4.374;2023-03-23T01:33:54;8.68;;;7.75;;
17177;SDS011;8704;52.006;4.374;2023-03-23T01:36:22;9.88;;;6.93;;
17177;SDS011;8704;52.006;4.374;2023-03-23T01:38:51;8.82;;;7.07;;
17177;SDS011;8704;52.006;4.374;2023-03-23T01:41:19;6.93;;;6.25;;
17177;SDS011;8704;52.006;4.374;2023-03-23T01:43:56;9.23;;;6.97;;
17177;SDS011;8704;52.006;4.374;2023-03-23T01:46:27;7.20;;;6.07;;
17177;SDS011;8704;52.006;4.374;2023-03-23T01:48:57;6.80;;;5.88;;
17177;SDS011;8704;52.006;4.374;2023-03-23T01:51:31;8.07;;;6.68;;
17177;SDS011;8704;52.006;4.374;2023-03-23T01:54:01;6.63;;;5.70;;
17177;SDS011;8704;52.006;4.374;2023-03-23T01:56:31;7.25;;;6.55;;
17177;SDS011;8704;52.006;4.374;2023-03-23T01:59:03;7.32;;;6.72;;
17177;SDS011;8704;52.006;4.374;2023-03-23T02:01:30;8.63;;;6.55;;
17177;SDS011;8704;52.006;4.374;2023-03-23T02:04:03;8.00;;;7.03;;
17177;SDS011;8704;52.006;4.374;2023-03-23T02:06:30;9.05;;;7.90;;
17177;SDS011;8704;52.006;4.374;2023-03-23T02:08:58;10.43;;;6.63;;
17177;SDS011;8704;52.006;4.374;2023-03-23T02:11:26;9.18;;;6.85;;
17177;SDS011;8704;52.006;4.374;2023-03-23T02:13:53;8.70;;;7.70;;
17177;SDS011;8704;52.006;4.374;2023-03-23T02:16:22;9.63;;;8.73;;
17177;SDS011;8704;52.006;4.374;2023-03-23T02:18:58;9.10;;;7.20;;
17177;SDS011;8704;52.006;4.374;2023-03-23T02:24:40;8.43;;;7.63;;
17177;SDS011;8704;52.006;4.374;2023-03-23T02:27:27;8.43;;;7.53;;
17177;SDS011;8704;52.006;4.374;2023-03-23T02:30:11;7.97;;;7.25;;
17177;SDS011;8704;52.006;4.374;2023-03-23T02:32:54;8.95;;;8.10;;
17177;SDS011;8704;52.006;4.374;2023-03-23T02:35:46;9.32;;;8.27;;
17177;SDS011;8704;52.006;4.374;2023-03-23T02:38:19;12.38;;;7.30;;
17177;SDS011;8704;52.006;4.374;2023-03-23T02:40:50;9.70;;;7.18;;
17177;SDS011;8704;52.006;4.374;2023-03-23T02:43:20;10.30;;;7.28;;
17177;SDS011;8704;52.006;4.374;2023-03-23T02:45:50;7.90;;;6.95;;
17177;SDS011;8704;52.006;4.374;2023-03-23T02:48:20;7.82;;;6.65;;
17177;SDS011;8704;52.006;4.374;2023-03-23T02:50:51;8.70;;;7.80;;
17177;SDS011;8704;52.006;4.374;2023-03-23T02:53:20;9.70;;;6.43;;
17177;SDS011;8704;52.006;4.374;2023-03-23T02:55:49;7.95;;;7.15;;
17177;SDS011;8704;52.006;4.374;2023-03-23T02:58:20;7.18;;;6.28;;
17177;SDS011;8704;52.006;4.374;2023-03-23T03:00:48;7.05;;;6.35;;
17177;SDS011;8704;52.006;4.374;2023-03-23T03:03:16;10.60;;;9.23;;
17177;SDS011;8704;52.006;4.374;2023-03-23T03:05:49;7.70;;;6.88;;
17177;SDS011;8704;52.006;4.374;2023-03-23T03:08:26;11.60;;;8.50;;
17177;SDS011;8704;52.006;4.374;2023-03-23T03:10:58;10.90;;;7.43;;
17177;SDS011;8704;52.006;4.374;2023-03-23T03:13:32;10.80;;;9.32;;
17177;SDS011;8704;52.006;4.374;2023-03-23T03:16:07;11.00;;;9.95;;
17177;SDS011;8704;52.006;4.374;2023-03-23T03:18:42;11.95;;;10.85;;
17177;SDS011;8704;52.006;4.374;2023-03-23T03:21:14;13.70;;;12.68;;
17177;SDS011;8704;52.006;4.374;2023-03-23T03:23:45;15.10;;;13.88;;
17177;SDS011;8704;52.006;4.374;2023-03-23T03:26:14;15.40;;;14.30;;
17177;SDS011;8704;52.006;4.374;2023-03-23T03:28:46;14.52;;;13.40;;
17177;SDS011;8704;52.006;4.374;2023-03-23T03:31:15;15.05;;;13.85;;
17177;SDS011;8704;52.006;4.374;2023-03-23T03:33:44;13.55;;;12.25;;
17177;SDS011;8704;52.006;4.374;2023-03-23T03:36:16;12.02;;;10.93;;
17177;SDS011;8704;52.006;4.374;2023-03-23T03:38:45;15.85;;;14.65;;
17177;SDS011;8704;52.006;4.374;2023-03-23T03:41:13;16.70;;;15.60;;
17177;SDS011;8704;52.006;4.374;2023-03-23T03:43:41;16.48;;;15.27;;
17177;SDS011;8704;52.006;4.374;2023-03-23T03:46:08;17.15;;;15.75;;
17177;SDS011;8704;52.006;4.374;2023-03-23T03:48:35;14.70;;;13.50;;
17177;SDS011;8704;52.006;4.374;2023-03-23T03:51:02;17.02;;;15.55;;
17177;SDS011;8704;52.006;4.374;2023-03-23T03:53:31;21.80;;;20.08;;
17177;SDS011;8704;52.006;4.374;2023-03-23T03:55:58;24.02;;;22.30;;
17177;SDS011;8704;52.006;4.374;2023-03-23T03:58:26;20.52;;;19.05;;
17177;SDS011;8704;52.006;4.374;2023-03-23T04:00:57;23.05;;;21.25;;
17177;SDS011;8704;52.006;4.374;2023-03-23T04:03:24;18.45;;;16.98;;
17177;SDS011;8704;52.006;4.374;2023-03-23T04:05:52;19.58;;;17.88;;
17177;SDS011;8704;52.006;4.374;2023-03-23T04:08:21;16.58;;;14.90;;
17177;SDS011;8704;52.006;4.374;2023-03-23T04:10:49;18.15;;;16.67;;
17177;SDS011;8704;52.006;4.374;2023-03-23T04:13:17;16.25;;;14.90;;
17177;SDS011;8704;52.006;4.374;2023-03-23T04:15:44;17.33;;;11.90;;
17177;SDS011;8704;52.006;4.374;2023-03-23T04:18:12;15.77;;;14.13;;
17177;SDS011;8704;52.006;4.374;2023-03-23T04:20:42;20.52;;;18.33;;
17177;SDS011;8704;52.006;4.374;2023-03-23T04:23:09;19.05;;;17.20;;
17177;SDS011;8704;52.006;4.374;2023-03-23T04:25:36;18.92;;;17.02;;
17177;SDS011;8704;52.006;4.374;2023-03-23T04:28:06;20.63;;;13.15;;
17177;SDS011;8704;52.006;4.374;2023-03-23T04:30:35;17.05;;;15.43;;
17177;SDS011;8704;52.006;4.374;2023-03-23T04:33:02;18.92;;;13.90;;
17177;SDS011;8704;52.006;4.374;2023-03-23T04:35:29;22.17;;;13.23;;
17177;SDS011;8704;52.006;4.374;2023-03-23T04:37:56;16.70;;;15.13;;
17177;SDS011;8704;52.006;4.374;2023-03-23T04:40:24;20.00;;;17.73;;
17177;SDS011;8704;52.006;4.374;2023-03-23T04:42:51;17.73;;;15.85;;
17177;SDS011;8704;52.006;4.374;2023-03-23T04:45:23;18.92;;;17.08;;
17177;SDS011;8704;52.006;4.374;2023-03-23T04:47:51;17.50;;;16.00;;
17177;SDS011;8704;52.006;4.374;2023-03-23T04:50:22;19.25;;;17.38;;
17177;SDS011;8704;52.006;4.374;2023-03-23T04:52:51;21.00;;;14.18;;
17177;SDS011;8704;52.006;4.374;2023-03-23T04:55:19;18.92;;;14.65;;
17177;SDS011;8704;52.006;4.374;2023-03-23T04:57:46;21.15;;;17.25;;
17177;SDS011;8704;52.006;4.374;2023-03-23T05:00:14;21.05;;;17.05;;
17177;SDS011;8704;52.006;4.374;2023-03-23T05:02:43;24.85;;;16.90;;
17177;SDS011;8704;52.006;4.374;2023-03-23T05:05:12;24.70;;;22.17;;
17177;SDS011;8704;52.006;4.374;2023-03-23T05:07:40;26.40;;;23.77;;
17177;SDS011;8704;52.006;4.374;2023-03-23T05:10:08;25.35;;;23.05;;
17177;SDS011;8704;52.006;4.374;2023-03-23T05:12:36;27.73;;;25.08;;
17177;SDS011;8704;52.006;4.374;2023-03-23T05:15:04;27.63;;;24.90;;
17177;SDS011;8704;52.006;4.374;2023-03-23T05:17:32;30.05;;;27.35;;
17177;SDS011;8704;52.006;4.374;2023-03-23T05:20:02;27.40;;;25.20;;
17177;SDS011;8704;52.006;4.374;2023-03-23T05:22:30;32.85;;;29.60;;
17177;SDS011;8704;52.006;4.374;2023-03-23T05:24:58;29.75;;;26.98;;
17177;SDS011;8704;52.006;4.374;2023-03-23T05:27:27;29.15;;;26.60;;
17177;SDS011;8704;52.006;4.374;2023-03-23T05:29:55;33.97;;;30.48;;
17177;SDS011;8704;52.006;4.374;2023-03-23T05:32:23;29.17;;;26.38;;
17177;SDS011;8704;52.006;4.374;2023-03-23T05:34:54;30.77;;;28.13;;
17177;SDS011;8704;52.006;4.374;2023-03-23T05:37:23;23.88;;;21.02;;
17177;SDS011;8704;52.006;4.374;2023-03-23T05:39:51;26.73;;;19.85;;
17177;SDS011;8704;52.006;4.374;2023-03-23T05:42:20;25.50;;;20.52;;
17177;SDS011;8704;52.006;4.374;2023-03-23T05:44:47;26.33;;;23.55;;
17177;SDS011;8704;52.006;4.374;2023-03-23T05:47:14;24.67;;;22.15;;
17177;SDS011;8704;52.006;4.374;2023-03-23T05:49:42;24.45;;;20.83;;
17177;SDS011;8704;52.006;4.374;2023-03-23T05:52:09;29.52;;;24.00;;
17177;SDS011;8704;52.006;4.374;2023-03-23T05:54:37;29.73;;;21.80;;
17177;SDS011;8704;52.006;4.374;2023-03-23T05:57:04;23.88;;;20.83;;
17177;SDS011;8704;52.006;4.374;2023-03-23T05:59:31;24.15;;;21.77;;
17177;SDS011;8704;52.006;4.374;2023-03-23T06:01:59;29.00;;;21.40;;
17177;SDS011;8704;52.006;4.374;2023-03-23T06:04:26;30.48;;;21.13;;
17177;SDS011;8704;52.006;4.374;2023-03-23T06:06:53;34.83;;;21.95;;
17177;SDS011;8704;52.006;4.374;2023-03-23T06:09:21;23.13;;;15.88;;
17177;SDS011;8704;52.006;4.374;2023-03-23T06:11:51;23.67;;;16.48;;
17177;SDS011;8704;52.006;4.374;2023-03-23T06:14:18;18.98;;;16.80;;
17177;SDS011;8704;52.006;4.374;2023-03-23T06:16:46;23.33;;;16.92;;
17177;SDS011;8704;52.006;4.374;2023-03-23T06:19:13;27.85;;;18.50;;
17177;SDS011;8704;52.006;4.374;2023-03-23T06:21:40;23.80;;;13.27;;
17177;SDS011;8704;52.006;4.374;2023-03-23T06:24:07;26.00;;;18.25;;
17177;SDS011;8704;52.006;4.374;2023-03-23T06:26:36;23.23;;;14.55;;
17177;SDS011;8704;52.006;4.374;2023-03-23T06:29:05;26.65;;;17.40;;
17177;SDS011;8704;52.006;4.374;2023-03-23T06:31:36;23.20;;;14.68;;
17177;SDS011;8704;52.006;4.374;2023-03-23T06:34:05;24.33;;;14.80;;
17177;SDS011;8704;52.006;4.374;2023-03-23T06:36:32;20.20;;;12.70;;
17177;SDS011;8704;52.006;4.374;2023-03-23T06:38:59;23.48;;;13.25;;
17177;SDS011;8704;52.006;4.374;2023-03-23T06:41:29;21.85;;;14.02;;
17177;SDS011;8704;52.006;4.374;2023-03-23T06:43:56;22.90;;;12.40;;
17177;SDS011;8704;52.006;4.374;2023-03-23T06:46:25;22.95;;;11.90;;
17177;SDS011;8704;52.006;4.374;2023-03-23T06:48:53;22.17;;;15.68;;
17177;SDS011;8704;52.006;4.374;2023-03-23T06:51:20;24.88;;;15.07;;
17177;SDS011;8704;52.006;4.374;2023-03-23T06:53:47;20.98;;;11.30;;
17177;SDS011;8704;52.006;4.374;2023-03-23T06:56:15;21.02;;;12.77;;
17177;SDS011;8704;52.006;4.374;2023-03-23T06:58:41;25.55;;;11.18;;
17177;SDS011;8704;52.006;4.374;2023-03-23T07:01:10;19.42;;;8.60;;
17177;SDS011;8704;52.006;4.374;2023-03-23T07:03:39;19.25;;;8.65;;
17177;SDS011;8704;52.006;4.374;2023-03-23T07:06:06;19.92;;;9.57;;
17177;SDS011;8704;52.006;4.374;2023-03-23T07:08:34;19.67;;;11.02;;
17177;SDS011;8704;52.006;4.374;2023-03-23T07:11:01;21.20;;;11.45;;
17177;SDS011;8704;52.006;4.374;2023-03-23T07:13:29;17.90;;;9.57;;
17177;SDS011;8704;52.006;4.374;2023-03-23T07:15:56;19.02;;;9.98;;
17177;SDS011;8704;52.006;4.374;2023-03-23T07:18:23;16.25;;;9.25;;
17177;SDS011;8704;52.006;4.374;2023-03-23T07:20:53;16.27;;;8.88;;
17177;SDS011;8704;52.006;4.374;2023-03-23T07:23:21;17.55;;;12.25;;
17177;SDS011;8704;52.006;4.374;2023-03-23T07:25:48;15.48;;;9.63;;
17177;SDS011;8704;52.006;4.374;2023-03-23T07:28:15;17.05;;;9.85;;
17177;SDS011;8704;52.006;4.374;2023-03-23T07:30:42;15.77;;;9.70;;
17177;SDS011;8704;52.006;4.374;2023-03-23T07:33:10;17.67;;;10.75;;
17177;SDS011;8704;52.006;4.374;2023-03-23T07:35:37;19.50;;;9.80;;
17177;SDS011;8704;52.006;4.374;2023-03-23T07:38:06;15.68;;;10.30;;
17177;SDS011;8704;52.006;4.374;2023-03-23T07:40:33;20.90;;;11.30;;
17177;SDS011;8704;52.006;4.374;2023-03-23T07:43:01;21.40;;;13.93;;
17177;SDS011;8704;52.006;4.374;2023-03-23T07:45:30;18.45;;;14.85;;
17177;SDS011;8704;52.006;4.374;2023-03-23T07:47:57;20.33;;;12.75;;
17177;SDS011;8704;52.006;4.374;2023-03-23T07:50:24;17.88;;;8.77;;
17177;SDS011;8704;52.006;4.374;2023-03-23T07:52:53;22.75;;;11.35;;
17177;SDS011;8704;52.006;4.374;2023-03-23T07:55:22;16.98;;;11.55;;
17177;SDS011;8704;52.006;4.374;2023-03-23T07:57:50;18.80;;;12.20;;
17177;SDS011;8704;52.006;4.374;2023-03-23T08:00:19;21.20;;;9.50;;
17177;SDS011;8704;52.006;4.374;2023-03-23T08:02:50;20.27;;;8.52;;
17177;SDS011;8704;52.006;4.374;2023-03-23T08:05:20;15.68;;;8.43;;
17177;SDS011;8704;52.006;4.374;2023-03-23T08:07:48;19.08;;;10.43;;
17177;SDS011;8704;52.006;4.374;2023-03-23T08:10:17;17.33;;;10.77;;
17177;SDS011;8704;52.006;4.374;2023-03-23T08:12:45;17.08;;;9.45;;
17177;SDS011;8704;52.006;4.374;2023-03-23T08:15:13;18.85;;;9.75;;
17177;SDS011;8704;52.006;4.374;2023-03-23T08:17:41;16.50;;;8.27;;
17177;SDS011;8704;52.006;4.374;2023-03-23T08:20:08;15.93;;;9.18;;
17177;SDS011;8704;52.006;4.374;2023-03-23T08:22:38;17.25;;;10.60;;
17177;SDS011;8704;52.006;4.374;2023-03-23T08:25:07;18.83;;;9.93;;
17177;SDS011;8704;52.006;4.374;2023-03-23T08:27:36;14.68;;;9.63;;
17177;SDS011;8704;52.006;4.374;2023-03-23T08:30:10;21.33;;;10.43;;
17177;SDS011;8704;52.006;4.374;2023-03-23T08:32:39;20.45;;;11.75;;
17177;SDS011;8704;52.006;4.374;2023-03-23T08:35:06;17.67;;;9.45;;
17177;SDS011;8704;52.006;4.374;2023-03-23T08:37:36;17.00;;;8.68;;
17177;SDS011;8704;52.006;4.374;2023-03-23T08:40:05;14.98;;;8.90;;
17177;SDS011;8704;52.006;4.374;2023-03-23T08:42:36;24.77;;;9.63;;
17177;SDS011;8704;52.006;4.374;2023-03-23T08:45:03;18.65;;;8.13;;
17177;SDS011;8704;52.006;4.374;2023-03-23T08:47:33;20.33;;;7.50;;
17177;SDS011;8704;52.006;4.374;2023-03-23T08:50:01;17.50;;;7.85;;
17177;SDS011;8704;52.006;4.374;2023-03-23T08:52:28;19.88;;;8.98;;
17177;SDS011;8704;52.006;4.374;2023-03-23T08:54:55;20.38;;;7.35;;
17177;SDS011;8704;52.006;4.374;2023-03-23T08:57:22;18.52;;;6.68;;
17177;SDS011;8704;52.006;4.374;2023-03-23T08:59:50;23.23;;;6.18;;
17177;SDS011;8704;52.006;4.374;2023-03-23T09:02:19;20.98;;;6.05;;
17177;SDS011;8704;52.006;4.374;2023-03-23T09:04:50;15.35;;;6.57;;
17177;SDS011;8704;52.006;4.374;2023-03-23T09:07:17;18.00;;;5.10;;
17177;SDS011;8704;52.006;4.374;2023-03-23T09:09:45;19.42;;;5.38;;
17177;SDS011;8704;52.006;4.374;2023-03-23T09:12:12;17.50;;;5.78;;
17177;SDS011;8704;52.006;4.374;2023-03-23T09:14:39;18.40;;;5.85;;
17177;SDS011;8704;52.006;4.374;2023-03-23T09:17:06;20.58;;;6.20;;
17177;SDS011;8704;52.006;4.374;2023-03-23T09:19:34;16.75;;;6.20;;
17177;SDS011;8704;52.006;4.374;2023-03-23T09:22:02;20.67;;;6.10;;
17177;SDS011;8704;52.006;4.374;2023-03-23T09:24:30;18.10;;;6.10;;
17177;SDS011;8704;52.006;4.374;2023-03-23T09:26:57;19.23;;;5.50;;
17177;SDS011;8704;52.006;4.374;2023-03-23T09:29:24;17.55;;;5.30;;
17177;SDS011;8704;52.006;4.374;2023-03-23T09:31:52;24.25;;;5.18;;
17177;SDS011;8704;52.006;4.374;2023-03-23T09:34:19;21.05;;;5.53;;
17177;SDS011;8704;52.006;4.374;2023-03-23T09:36:47;16.73;;;5.45;;
17177;SDS011;8704;52.006;4.374;2023-03-23T09:39:16;18.63;;;5.70;;
17177;SDS011;8704;52.006;4.374;2023-03-23T09:41:51;21.45;;;5.78;;
17177;SDS011;8704;52.006;4.374;2023-03-23T09:44:34;19.27;;;5.32;;
17177;SDS011;8704;52.006;4.374;2023-03-23T09:47:12;17.48;;;4.85;;
17177;SDS011;8704;52.006;4.374;2023-03-23T09:49:48;22.40;;;5.15;;
17177;SDS011;8704;52.006;4.374;2023-03-23T09:52:19;17.02;;;5.40;;
17177;SDS011;8704;52.006;4.374;2023-03-23T09:54:48;22.63;;;5.38;;
17177;SDS011;8704;52.006;4.374;2023-03-23T09:57:19;22.52;;;6.00;;
17177;SDS011;8704;52.006;4.374;2023-03-23T09:59:54;23.48;;;6.28;;
17177;SDS011;8704;52.006;4.374;2023-03-23T10:02:26;21.65;;;6.13;;
17177;SDS011;8704;52.006;4.374;2023-03-23T10:04:58;19.25;;;5.10;;
17177;SDS011;8704;52.006;4.374;2023-03-23T10:07:38;21.65;;;5.53;;
17177;SDS011;8704;52.006;4.374;2023-03-23T10:10:08;21.05;;;5.00;;
17177;SDS011;8704;52.006;4.374;2023-03-23T10:12:40;22.30;;;5.82;;
17177;SDS011;8704;52.006;4.374;2023-03-23T10:15:12;20.25;;;5.85;;
17177;SDS011;8704;52.006;4.374;2023-03-23T10:17:45;23.35;;;6.07;;
17177;SDS011;8704;52.006;4.374;2023-03-23T10:20:29;19.65;;;5.63;;
17177;SDS011;8704;52.006;4.374;2023-03-23T10:23:05;21.70;;;4.88;;
17177;SDS011;8704;52.006;4.374;2023-03-23T10:25:41;19.88;;;5.28;;
17177;SDS011;8704;52.006;4.374;2023-03-23T10:28:10;22.13;;;5.57;;
17177;SDS011;8704;52.006;4.374;2023-03-23T10:30:39;20.38;;;5.60;;
17177;SDS011;8704;52.006;4.374;2023-03-23T10:33:11;21.02;;;5.03;;
17177;SDS011;8704;52.006;4.374;2023-03-23T10:35:43;21.67;;;5.38;;
17177;SDS011;8704;52.006;4.374;2023-03-23T10:38:13;20.13;;;5.55;;
17177;SDS011;8704;52.006;4.374;2023-03-23T10:40:47;19.00;;;5.40;;
17177;SDS011;8704;52.006;4.374;2023-03-23T10:43:17;25.25;;;5.68;;
17177;SDS011;8704;52.006;4.374;2023-03-23T10:45:46;20.23;;;5.55;;
17177;SDS011;8704;52.006;4.374;2023-03-23T10:48:23;24.20;;;5.82;;
17177;SDS011;8704;52.006;4.374;2023-03-23T10:50:56;25.10;;;5.43;;
17177;SDS011;8704;52.006;4.374;2023-03-23T10:53:32;19.58;;;4.93;;
17177;SDS011;8704;52.006;4.374;2023-03-23T10:56:04;17.10;;;4.47;;
17177;SDS011;8704;52.006;4.374;2023-03-23T10:58:46;22.83;;;5.38;;
17177;SDS011;8704;52.006;4.374;2023-03-23T11:01:13;22.73;;;5.28;;
17177;SDS011;8704;52.006;4.374;2023-03-23T11:03:41;29.85;;;5.40;;
17177;SDS011;8704;52.006;4.374;2023-03-23T11:06:11;15.48;;;4.28;;
17177;SDS011;8704;52.006;4.374;2023-03-23T11:08:48;18.55;;;4.45;;
17177;SDS011;8704;52.006;4.374;2023-03-23T11:11:24;18.25;;;4.95;;
17177;SDS011;8704;52.006;4.374;2023-03-23T11:13:56;18.95;;;4.55;;
17177;SDS011;8704;52.006;4.374;2023-03-23T11:16:25;20.23;;;4.82;;
17177;SDS011;8704;52.006;4.374;2023-03-23T11:18:56;12.85;;;4.00;;
17177;SDS011;8704;52.006;4.374;2023-03-23T11:21:24;16.95;;;4.20;;
17177;SDS011;8704;52.006;4.374;2023-03-23T11:23:53;15.05;;;3.92;;
17177;SDS011;8704;52.006;4.374;2023-03-23T11:26:25;19.00;;;3.60;;
17177;SDS011;8704;52.006;4.374;2023-03-23T11:28:56;15.13;;;3.78;;
17177;SDS011;8704;52.006;4.374;2023-03-23T11:31:27;14.05;;;3.60;;
17177;SDS011;8704;52.006;4.374;2023-03-23T11:33:57;13.80;;;3.40;;
17177;SDS011;8704;52.006;4.374;2023-03-23T11:36:31;14.15;;;3.67;;
17177;SDS011;8704;52.006;4.374;2023-03-23T11:39:01;17.02;;;3.92;;
17177;SDS011;8704;52.006;4.374;2023-03-23T11:41:34;14.48;;;3.30;;
17177;SDS011;8704;52.006;4.374;2023-03-23T11:44:09;16.48;;;3.60;;
17177;SDS011;8704;52.006;4.374;2023-03-23T11:46:40;13.82;;;3.65;;
17177;SDS011;8704;52.006;4.374;2023-03-23T11:49:17;12.30;;;3.15;;
17177;SDS011;8704;52.006;4.374;2023-03-23T11:51:53;14.27;;;3.70;;
17177;SDS011;8704;52.006;4.374;2023-03-23T11:54:24;12.15;;;3.80;;
17177;SDS011;8704;52.006;4.374;2023-03-23T11:56:58;15.63;;;3.88;;
17177;SDS011;8704;52.006;4.374;2023-03-23T11:59:28;12.40;;;3.38;;
17177;SDS011;8704;52.006;4.374;2023-03-23T12:02:01;12.13;;;3.70;;
17177;SDS011;8704;52.006;4.374;2023-03-23T12:04:50;13.57;;;2.72;;
17177;SDS011;8704;52.006;4.374;2023-03-23T12:10:24;12.73;;;3.03;;
17177;SDS011;8704;52.006;4.374;2023-03-23T12:13:09;10.80;;;2.90;;
17177;SDS011;8704;52.006;4.374;2023-03-23T12:15:48;13.15;;;3.53;;
17177;SDS011;8704;52.006;4.374;2023-03-23T12:18:23;11.98;;;3.20;;
17177;SDS011;8704;52.006;4.374;2023-03-23T12:20:59;11.15;;;3.30;;
17177;SDS011;8704;52.006;4.374;2023-03-23T12:23:33;14.07;;;3.50;;
17177;SDS011;8704;52.006;4.374;2023-03-23T12:26:10;12.48;;;3.70;;
17177;SDS011;8704;52.006;4.374;2023-03-23T12:28:53;16.45;;;4.15;;
17177;SDS011;8704;52.006;4.374;2023-03-23T12:31:31;13.88;;;3.60;;
17177;SDS011;8704;52.006;4.374;2023-03-23T12:34:07;16.02;;;3.38;;
17177;SDS011;8704;52.006;4.374;2023-03-23T12:36:47;18.05;;;4.38;;
17177;SDS011;8704;52.006;4.374;2023-03-23T12:42:18;14.90;;;3.53;;
17177;SDS011;8704;52.006;4.374;2023-03-23T12:44:53;12.85;;;3.38;;
17177;SDS011;8704;52.006;4.374;2023-03-23T12:47:28;13.77;;;3.53;;
17177;SDS011;8704;52.006;4.374;2023-03-23T12:50:05;15.82;;;4.10;;
17177;SDS011;8704;52.006;4.374;2023-03-23T12:52:39;12.45;;;3.78;;
17177;SDS011;8704;52.006;4.374;2023-03-23T12:55:13;14.30;;;3.75;;
17177;SDS011;8704;52.006;4.374;2023-03-23T12:57:45;17.90;;;3.70;;
17177;SDS011;8704;52.006;4.374;2023-03-23T13:00:21;18.15;;;3.85;;
17177;SDS011;8704;52.006;4.374;2023-03-23T13:02:53;14.38;;;4.05;;
17177;SDS011;8704;52.006;4.374;2023-03-23T13:05:27;11.93;;;3.58;;
17177;SDS011;8704;52.006;4.374;2023-03-23T13:08:05;14.82;;;3.75;;
17177;SDS011;8704;52.006;4.374;2023-03-23T13:10:38;12.13;;;3.42;;
17177;SDS011;8704;52.006;4.374;2023-03-23T13:13:10;15.60;;;3.85;;
17177;SDS011;8704;52.006;4.374;2023-03-23T13:15:44;17.70;;;4.00;;
17177;SDS011;8704;52.006;4.374;2023-03-23T13:18:20;13.02;;;3.92;;
17177;SDS011;8704;52.006;4.374;2023-03-23T13:20:59;15.00;;;3.95;;
17177;SDS011;8704;52.006;4.374;2023-03-23T13:23:34;16.02;;;4.28;;
17177;SDS011;8704;52.006;4.374;2023-03-23T13:26:05;14.52;;;3.78;;
17177;SDS011;8704;52.006;4.374;2023-03-23T13:28:44;16.65;;;3.78;;
17177;SDS011;8704;52.006;4.374;2023-03-23T13:31:21;21.00;;;4.63;;
17177;SDS011;8704;52.006;4.374;2023-03-23T13:33:51;17.63;;;4.47;;
17177;SDS011;8704;52.006;4.374;2023-03-23T13:36:28;14.55;;;4.25;;
17177;SDS011;8704;52.006;4.374;2023-03-23T13:38:57;20.40;;;4.50;;
17177;SDS011;8704;52.006;4.374;2023-03-23T13:41:27;21.08;;;3.85;;
17177;SDS011;8704;52.006;4.374;2023-03-23T13:44:04;14.70;;;3.92;;
17177;SDS011;8704;52.006;4.374;2023-03-23T13:46:52;20.30;;;4.43;;
17177;SDS011;8704;52.006;4.374;2023-03-23T13:49:21;15.07;;;4.53;;
17177;SDS011;8704;52.006;4.374;2023-03-23T13:51:59;17.83;;;4.40;;
17177;SDS011;8704;52.006;4.374;2023-03-23T13:54:42;15.55;;;3.63;;
17177;SDS011;8704;52.006;4.374;2023-03-23T13:57:33;12.75;;;3.45;;
17177;SDS011;8704;52.006;4.374;2023-03-23T14:03:05;11.75;;;3.30;;
17177;SDS011;8704;52.006;4.374;2023-03-23T14:05:39;16.67;;;3.53;;
17177;SDS011;8704;52.006;4.374;2023-03-23T14:08:10;14.52;;;3.65;;
17177;SDS011;8704;52.006;4.374;2023-03-23T14:10:41;16.88;;;4.18;;
17177;SDS011;8704;52.006;4.374;2023-03-23T14:13:14;13.27;;;3.30;;
17177;SDS011;8704;52.006;4.374;2023-03-23T14:15:45;13.85;;;4.07;;
17177;SDS011;8704;52.006;4.374;2023-03-23T14:18:23;12.88;;;3.35;;
17177;SDS011;8704;52.006;4.374;2023-03-23T14:20:53;11.93;;;3.35;;
17177;SDS011;8704;52.006;4.374;2023-03-23T14:23:23;13.93;;;3.78;;
17177;SDS011;8704;52.006;4.374;2023-03-23T14:25:54;16.08;;;4.22;;
17177;SDS011;8704;52.006;4.374;2023-03-23T14:28:23;14.38;;;4.22;;
17177;SDS011;8704;52.006;4.374;2023-03-23T14:30:53;12.63;;;3.28;;
17177;SDS011;8704;52.006;4.374;2023-03-23T14:33:23;13.43;;;4.00;;
17177;SDS011;8704;52.006;4.374;2023-03-23T14:35:52;11.18;;;3.70;;
17177;SDS011;8704;52.006;4.374;2023-03-23T14:38:20;12.60;;;3.97;;
17177;SDS011;8704;52.006;4.374;2023-03-23T14:40:51;15.88;;;4.07;;
17177;SDS011;8704;52.006;4.374;2023-03-23T14:43:20;15.38;;;3.70;;
17177;SDS011;8704;52.006;4.374;2023-03-23T14:45:50;13.40;;;3.70;;
17177;SDS011;8704;52.006;4.374;2023-03-23T14:48:18;13.90;;;3.90;;
17177;SDS011;8704;52.006;4.374;2023-03-23T14:50:52;12.25;;;3.78;;
17177;SDS011;8704;52.006;4.374;2023-03-23T14:53:23;12.00;;;3.80;;
17177;SDS011;8704;52.006;4.374;2023-03-23T14:55:52;15.13;;;4.10;;
17177;SDS011;8704;52.006;4.374;2023-03-23T14:58:23;12.02;;;3.70;;
17177;SDS011;8704;52.006;4.374;2023-03-23T15:00:52;13.75;;;4.05;;
17177;SDS011;8704;52.006;4.374;2023-03-23T15:03:24;13.77;;;4.05;;
17177;SDS011;8704;52.006;4.374;2023-03-23T15:05:55;21.67;;;4.97;;
17177;SDS011;8704;52.006;4.374;2023-03-23T15:08:25;15.30;;;3.88;;
17177;SDS011;8704;52.006;4.374;2023-03-23T15:10:57;14.05;;;3.60;;
17177;SDS011;8704;52.006;4.374;2023-03-23T15:13:30;14.18;;;4.07;;
17177;SDS011;8704;52.006;4.374;2023-03-23T15:16:01;13.55;;;3.88;;
17177;SDS011;8704;52.006;4.374;2023-03-23T15:18:34;15.70;;;4.40;;